sensor_id;sensor_type;location;lat;lon;timestamp;temperature;humidity
24632;DHT22;59977;48.782;9.190;2023-08-07T00:00:23;14.10;99.90
24632;DHT22;59977;48.782;9.190;2023-08-07T00:02:48;14.10;99.90
24632;DHT22;59977;48.782;9.190;2023-08-07T00:05:15;14.10;99.90
24632;DHT22;59977;48.782;9.190;2023-08-07T00:07:42;14.10;99.90
24632;DHT22;59977;48.782;9.190;2023-08-07T00:10:08;14.10;99.90
24632;DHT22;59977;48.782;9.190;2023-08-07T00:12:34;14.00;99.90
24632;DHT22;59977;48.782;9.190;2023-08-07T00:15:00;14.00;99.90
24632;DHT22;59977;48.782;9.190;2023-08-07T00:17:26;14.00;99.90
24632;DHT22;59977;48.782;9.190;2023-08-07T00:19:51;14.00;99.90
24632;DHT22;59977;48.782;9.190;2023-08-07T00:22:17;14.10;99.90
24632;DHT22;59977;48.782;9.190;2023-08-07T00:24:43;14.00;99.90
24632;DHT22;59977;48.782;9.190;2023-08-07T00:27:08;14.10;99.90
24632;DHT22;59977;48.782;9.190;2023-08-07T00:29:38;14.10;99.90
24632;DHT22;59977;48.782;9.190;2023-08-07T00:32:04;14.00;99.90
24632;DHT22;59977;48.782;9.190;2023-08-07T00:34:29;14.10;99.90
24632;DHT22;59977;48.782;9.190;2023-08-07T00:36:55;14.10;99.90
24632;DHT22;59977;48.782;9.190;2023-08-07T00:39:21;14.10;99.90
24632;DHT22;59977;48.782;9.190;2023-08-07T00:41:46;14.20;99.90
24632;DHT22;59977;48.782;9.190;2023-08-07T00:44:12;14.10;99.90
24632;DHT22;59977;48.782;9.190;2023-08-07T00:46:38;14.00;99.90
24632;DHT22;59977;48.782;9.190;2023-08-07T00:49:07;14.00;99.90
24632;DHT22;59977;48.782;9.190;2023-08-07T00:51:33;14.00;99.90
24632;DHT22;59977;48.782;9.190;2023-08-07T00:54:00;14.10;99.90
24632;DHT22;59977;48.782;9.190;2023-08-07T00:56:27;14.10;99.90
24632;DHT22;59977;48.782;9.190;2023-08-07T00:58:53;14.10;99.90
24632;DHT22;59977;48.782;9.190;2023-08-07T01:01:19;14.10;99.90
24632;DHT22;59977;48.782;9.190;2023-08-07T01:03:45;14.10;99.90
24632;DHT22;59977;48.782;9.190;2023-08-07T01:06:10;14.10;99.90
24632;DHT22;59977;48.782;9.190;2023-08-07T01:08:36;14.10;99.90
24632;DHT22;59977;48.782;9.190;2023-08-07T01:14:07;14.00;99.90
24632;DHT22;59977;48.782;9.190;2023-08-07T01:16:35;14.10;99.90
24632;DHT22;59977;48.782;9.190;2023-08-07T01:19:03;14.10;99.90
24632;DHT22;59977;48.782;9.190;2023-08-07T01:21:32;14.10;99.90
24632;DHT22;59977;48.782;9.190;2023-08-07T01:23:57;14.10;99.90
24632;DHT22;59977;48.782;9.190;2023-08-07T01:26:23;14.10;99.90
24632;DHT22;59977;48.782;9.190;2023-08-07T01:31:22;14.10;99.90
24632;DHT22;59977;48.782;9.190;2023-08-07T01:34:02;14.10;99.90
24632;DHT22;59977;48.782;9.190;2023-08-07T01:36:29;14.00;99.90
24632;DHT22;59977;48.782;9.190;2023-08-07T01:38:59;14.50;99.90
24632;DHT22;59977;48.782;9.190;2023-08-07T01:41:26;14.10;99.90
24632;DHT22;59977;48.782;9.190;2023-08-07T01:43:52;14.10;99.90
24632;DHT22;59977;48.782;9.190;2023-08-07T01:46:18;14.00;99.90
24632;DHT22;59977;48.782;9.190;2023-08-07T01:48:44;14.40;99.90
24632;DHT22;59977;48.782;9.190;2023-08-07T01:51:10;14.10;99.90
24632;DHT22;59977;48.782;9.190;2023-08-07T01:53:35;14.00;99.90
24632;DHT22;59977;48.782;9.190;2023-08-07T01:56:01;13.90;99.90
24632;DHT22;59977;48.782;9.190;2023-08-07T01:58:26;14.00;99.90
24632;DHT22;59977;48.782;9.190;2023-08-07T02:00:53;14.00;99.90
24632;DHT22;59977;48.782;9.190;2023-08-07T02:03:19;14.00;99.90
24632;DHT22;59977;48.782;9.190;2023-08-07T02:05:46;14.10;99.90
24632;DHT22;59977;48.782;9.190;2023-08-07T02:08:12;14.00;99.90
24632;DHT22;59977;48.782;9.190;2023-08-07T02:10:37;14.10;99.90
24632;DHT22;59977;48.782;9.190;2023-08-07T02:13:03;14.10;99.90
24632;DHT22;59977;48.782;9.190;2023-08-07T02:15:29;14.00;99.90
24632;DHT22;59977;48.782;9.190;2023-08-07T02:17:54;14.00;99.90
24632;DHT22;59977;48.782;9.190;2023-08-07T02:20:20;14.00;99.90
24632;DHT22;59977;48.782;9.190;2023-08-07T02:22:46;14.00;99.90
24632;DHT22;59977;48.782;9.190;2023-08-07T02:25:11;14.00;99.90
24632;DHT22;59977;48.782;9.190;2023-08-07T02:27:37;14.10;99.90
24632;DHT22;59977;48.782;9.190;2023-08-07T02:30:03;14.00;99.90
24632;DHT22;59977;48.782;9.190;2023-08-07T02:32:29;14.00;99.90
24632;DHT22;59977;48.782;9.190;2023-08-07T02:34:55;14.00;99.90
24632;DHT22;59977;48.782;9.190;2023-08-07T02:37:20;14.00;99.90
24632;DHT22;59977;48.782;9.190;2023-08-07T02:39:46;14.00;99.90
24632;DHT22;59977;48.782;9.190;2023-08-07T02:42:12;14.00;99.90
24632;DHT22;59977;48.782;9.190;2023-08-07T02:44:38;14.00;99.90
24632;DHT22;59977;48.782;9.190;2023-08-07T02:47:03;14.00;99.90
24632;DHT22;59977;48.782;9.190;2023-08-07T02:49:29;13.90;99.90
24632;DHT22;59977;48.782;9.190;2023-08-07T02:51:54;14.00;99.90
24632;DHT22;59977;48.782;9.190;2023-08-07T02:54:20;13.90;99.90
24632;DHT22;59977;48.782;9.190;2023-08-07T02:56:46;13.90;99.90
24632;DHT22;59977;48.782;9.190;2023-08-07T02:59:11;13.90;99.90
24632;DHT22;59977;48.782;9.190;2023-08-07T03:01:37;13.80;99.90
24632;DHT22;59977;48.782;9.190;2023-08-07T03:04:03;13.80;99.90
24632;DHT22;59977;48.782;9.190;2023-08-07T03:06:28;13.80;99.90
24632;DHT22;59977;48.782;9.190;2023-08-07T03:08:54;13.80;99.90
24632;DHT22;59977;48.782;9.190;2023-08-07T03:11:20;13.80;99.90
24632;DHT22;59977;48.782;9.190;2023-08-07T03:13:46;13.70;99.90
24632;DHT22;59977;48.782;9.190;2023-08-07T03:16:11;13.80;99.90
24632;DHT22;59977;48.782;9.190;2023-08-07T03:18:37;13.70;99.90
24632;DHT22;59977;48.782;9.190;2023-08-07T03:21:03;13.80;99.90
24632;DHT22;59977;48.782;9.190;2023-08-07T03:23:29;13.70;99.90
24632;DHT22;59977;48.782;9.190;2023-08-07T03:26:07;13.70;99.90
24632;DHT22;59977;48.782;9.190;2023-08-07T03:28:34;13.70;99.90
24632;DHT22;59977;48.782;9.190;2023-08-07T03:31:01;13.70;99.90
24632;DHT22;59977;48.782;9.190;2023-08-07T03:33:26;13.70;99.90
24632;DHT22;59977;48.782;9.190;2023-08-07T03:35:52;13.70;99.90
24632;DHT22;59977;48.782;9.190;2023-08-07T03:38:18;13.70;99.90
24632;DHT22;59977;48.782;9.190;2023-08-07T03:40:44;13.70;99.90
24632;DHT22;59977;48.782;9.190;2023-08-07T03:43:09;13.80;99.90
24632;DHT22;59977;48.782;9.190;2023-08-07T03:45:35;13.80;99.90
24632;DHT22;59977;48.782;9.190;2023-08-07T03:48:01;13.70;99.90
24632;DHT22;59977;48.782;9.190;2023-08-07T03:50:27;13.70;99.90
24632;DHT22;59977;48.782;9.190;2023-08-07T03:52:52;13.70;99.90
24632;DHT22;59977;48.782;9.190;2023-08-07T03:55:18;13.70;99.90
24632;DHT22;59977;48.782;9.190;2023-08-07T03:57:44;13.60;99.90
24632;DHT22;59977;48.782;9.190;2023-08-07T04:00:10;13.60;99.90
24632;DHT22;59977;48.782;9.190;2023-08-07T04:02:35;13.70;99.90
24632;DHT22;59977;48.782;9.190;2023-08-07T04:05:01;13.60;99.90
24632;DHT22;59977;48.782;9.190;2023-08-07T04:07:27;13.60;99.90
24632;DHT22;59977;48.782;9.190;2023-08-07T04:09:53;13.60;99.90
24632;DHT22;59977;48.782;9.190;2023-08-07T04:12:18;13.60;99.90
24632;DHT22;59977;48.782;9.190;2023-08-07T04:14:44;13.50;99.90
24632;DHT22;59977;48.782;9.190;2023-08-07T04:17:09;13.50;99.90
24632;DHT22;59977;48.782;9.190;2023-08-07T04:19:35;13.70;99.90
24632;DHT22;59977;48.782;9.190;2023-08-07T04:22:00;13.50;99.90
24632;DHT22;59977;48.782;9.190;2023-08-07T04:24:26;13.60;99.90
24632;DHT22;59977;48.782;9.190;2023-08-07T04:26:52;13.60;99.90
24632;DHT22;59977;48.782;9.190;2023-08-07T04:29:18;13.60;99.90
24632;DHT22;59977;48.782;9.190;2023-08-07T04:31:44;13.50;99.90
24632;DHT22;59977;48.782;9.190;2023-08-07T04:34:09;13.60;99.90
24632;DHT22;59977;48.782;9.190;2023-08-07T04:36:35;13.60;99.90
24632;DHT22;59977;48.782;9.190;2023-08-07T04:39:01;13.60;99.90
24632;DHT22;59977;48.782;9.190;2023-08-07T04:41:27;13.70;99.90
24632;DHT22;59977;48.782;9.190;2023-08-07T04:43:53;13.60;99.90
24632;DHT22;59977;48.782;9.190;2023-08-07T04:46:18;13.70;99.90
24632;DHT22;59977;48.782;9.190;2023-08-07T04:48:44;13.70;99.90
24632;DHT22;59977;48.782;9.190;2023-08-07T04:51:09;13.70;99.90
24632;DHT22;59977;48.782;9.190;2023-08-07T04:53:35;13.70;99.90
24632;DHT22;59977;48.782;9.190;2023-08-07T04:56:02;13.70;99.90
24632;DHT22;59977;48.782;9.190;2023-08-07T04:58:28;13.80;99.90
24632;DHT22;59977;48.782;9.190;2023-08-07T05:00:57;13.80;99.90
24632;DHT22;59977;48.782;9.190;2023-08-07T05:03:23;13.80;99.90
24632;DHT22;59977;48.782;9.190;2023-08-07T05:05:48;13.80;99.90
24632;DHT22;59977;48.782;9.190;2023-08-07T05:08:14;13.80;99.90
24632;DHT22;59977;48.782;9.190;2023-08-07T05:10:39;13.80;99.90
24632;DHT22;59977;48.782;9.190;2023-08-07T05:13:05;13.80;99.90
24632;DHT22;59977;48.782;9.190;2023-08-07T05:15:31;13.70;99.90
24632;DHT22;59977;48.782;9.190;2023-08-07T05:17:57;13.90;99.90
24632;DHT22;59977;48.782;9.190;2023-08-07T05:20:23;13.90;99.90
24632;DHT22;59977;48.782;9.190;2023-08-07T05:22:49;13.80;99.90
24632;DHT22;59977;48.782;9.190;2023-08-07T05:25:15;13.90;99.90
24632;DHT22;59977;48.782;9.190;2023-08-07T05:27:42;13.90;99.90
24632;DHT22;59977;48.782;9.190;2023-08-07T05:30:08;13.90;99.90
24632;DHT22;59977;48.782;9.190;2023-08-07T05:32:34;14.00;99.90
24632;DHT22;59977;48.782;9.190;2023-08-07T05:35:04;14.00;99.90
24632;DHT22;59977;48.782;9.190;2023-08-07T05:37:30;14.00;99.90
24632;DHT22;59977;48.782;9.190;2023-08-07T05:39:57;14.10;99.90
24632;DHT22;59977;48.782;9.190;2023-08-07T05:42:22;14.10;99.90
24632;DHT22;59977;48.782;9.190;2023-08-07T05:44:48;14.10;99.90
24632;DHT22;59977;48.782;9.190;2023-08-07T05:47:14;14.20;99.90
24632;DHT22;59977;48.782;9.190;2023-08-07T05:49:40;14.20;99.90
24632;DHT22;59977;48.782;9.190;2023-08-07T05:52:05;14.20;99.90
24632;DHT22;59977;48.782;9.190;2023-08-07T05:54:31;14.30;99.90
24632;DHT22;59977;48.782;9.190;2023-08-07T05:56:57;14.30;99.90
24632;DHT22;59977;48.782;9.190;2023-08-07T05:59:22;14.40;99.90
24632;DHT22;59977;48.782;9.190;2023-08-07T06:01:48;14.40;99.90
24632;DHT22;59977;48.782;9.190;2023-08-07T06:04:14;14.40;99.90
24632;DHT22;59977;48.782;9.190;2023-08-07T06:06:39;14.40;99.90
24632;DHT22;59977;48.782;9.190;2023-08-07T06:09:06;14.40;99.90
24632;DHT22;59977;48.782;9.190;2023-08-07T06:11:32;14.40;99.90
24632;DHT22;59977;48.782;9.190;2023-08-07T06:13:58;14.50;99.90
24632;DHT22;59977;48.782;9.190;2023-08-07T06:16:24;14.60;99.90
24632;DHT22;59977;48.782;9.190;2023-08-07T06:18:50;14.60;99.90
24632;DHT22;59977;48.782;9.190;2023-08-07T06:21:15;14.60;99.90
24632;DHT22;59977;48.782;9.190;2023-08-07T06:23:41;14.70;99.90
24632;DHT22;59977;48.782;9.190;2023-08-07T06:26:07;14.70;99.90
24632;DHT22;59977;48.782;9.190;2023-08-07T06:28:34;14.70;99.90
24632;DHT22;59977;48.782;9.190;2023-08-07T06:31:06;14.70;99.90
24632;DHT22;59977;48.782;9.190;2023-08-07T06:33:32;14.70;99.90
24632;DHT22;59977;48.782;9.190;2023-08-07T06:35:59;14.70;99.90
24632;DHT22;59977;48.782;9.190;2023-08-07T06:38:24;14.80;99.90
24632;DHT22;59977;48.782;9.190;2023-08-07T06:40:50;14.90;99.90
24632;DHT22;59977;48.782;9.190;2023-08-07T06:43:16;14.90;99.90
24632;DHT22;59977;48.782;9.190;2023-08-07T06:45:42;14.90;99.90
24632;DHT22;59977;48.782;9.190;2023-08-07T06:48:08;14.70;99.90
24632;DHT22;59977;48.782;9.190;2023-08-07T06:50:33;14.80;99.90
24632;DHT22;59977;48.782;9.190;2023-08-07T06:52:59;14.80;99.90
24632;DHT22;59977;48.782;9.190;2023-08-07T06:55:25;14.80;99.90
24632;DHT22;59977;48.782;9.190;2023-08-07T06:57:51;14.90;99.90
24632;DHT22;59977;48.782;9.190;2023-08-07T07:00:17;14.90;99.90
24632;DHT22;59977;48.782;9.190;2023-08-07T07:02:42;15.00;99.90
24632;DHT22;59977;48.782;9.190;2023-08-07T07:05:08;15.20;99.90
24632;DHT22;59977;48.782;9.190;2023-08-07T07:07:34;15.30;99.90
24632;DHT22;59977;48.782;9.190;2023-08-07T07:09:59;15.30;99.90
24632;DHT22;59977;48.782;9.190;2023-08-07T07:12:26;15.50;99.90
24632;DHT22;59977;48.782;9.190;2023-08-07T07:14:52;15.70;99.90
24632;DHT22;59977;48.782;9.190;2023-08-07T07:17:18;15.70;99.90
24632;DHT22;59977;48.782;9.190;2023-08-07T07:19:44;15.60;99.90
24632;DHT22;59977;48.782;9.190;2023-08-07T07:22:09;15.60;99.90
24632;DHT22;59977;48.782;9.190;2023-08-07T07:24:35;15.60;99.90
24632;DHT22;59977;48.782;9.190;2023-08-07T07:27:01;15.60;99.90
24632;DHT22;59977;48.782;9.190;2023-08-07T07:29:26;15.60;99.90
24632;DHT22;59977;48.782;9.190;2023-08-07T07:31:52;15.60;99.90
24632;DHT22;59977;48.782;9.190;2023-08-07T07:34:19;15.60;99.90
24632;DHT22;59977;48.782;9.190;2023-08-07T07:36:44;15.60;99.90
24632;DHT22;59977;48.782;9.190;2023-08-07T07:39:10;15.60;99.90
24632;DHT22;59977;48.782;9.190;2023-08-07T07:41:36;15.70;99.90
24632;DHT22;59977;48.782;9.190;2023-08-07T07:44:02;15.90;99.90
24632;DHT22;59977;48.782;9.190;2023-08-07T07:46:28;15.90;99.90
24632;DHT22;59977;48.782;9.190;2023-08-07T07:48:54;16.00;99.90
24632;DHT22;59977;48.782;9.190;2023-08-07T07:51:21;16.00;99.90
24632;DHT22;59977;48.782;9.190;2023-08-07T07:53:52;16.10;99.90
24632;DHT22;59977;48.782;9.190;2023-08-07T07:56:18;16.00;99.90
24632;DHT22;59977;48.782;9.190;2023-08-07T07:58:43;16.10;99.90
24632;DHT22;59977;48.782;9.190;2023-08-07T08:01:09;16.10;99.90
24632;DHT22;59977;48.782;9.190;2023-08-07T08:03:35;16.20;99.90
24632;DHT22;59977;48.782;9.190;2023-08-07T08:06:00;16.30;99.90
24632;DHT22;59977;48.782;9.190;2023-08-07T08:08:26;16.30;99.90
24632;DHT22;59977;48.782;9.190;2023-08-07T08:10:52;16.30;99.90
24632;DHT22;59977;48.782;9.190;2023-08-07T08:13:18;16.10;99.90
24632;DHT22;59977;48.782;9.190;2023-08-07T08:15:44;16.10;99.90
24632;DHT22;59977;48.782;9.190;2023-08-07T08:18:10;16.00;99.90
24632;DHT22;59977;48.782;9.190;2023-08-07T08:20:37;16.00;99.90
24632;DHT22;59977;48.782;9.190;2023-08-07T08:23:03;16.10;99.90
24632;DHT22;59977;48.782;9.190;2023-08-07T08:25:29;16.10;99.90
24632;DHT22;59977;48.782;9.190;2023-08-07T08:27:54;16.10;99.90
24632;DHT22;59977;48.782;9.190;2023-08-07T08:30:20;16.10;99.90
24632;DHT22;59977;48.782;9.190;2023-08-07T08:32:46;16.10;99.90
24632;DHT22;59977;48.782;9.190;2023-08-07T08:35:12;16.10;99.90
24632;DHT22;59977;48.782;9.190;2023-08-07T08:37:37;16.20;99.90
24632;DHT22;59977;48.782;9.190;2023-08-07T08:40:03;16.30;99.90
24632;DHT22;59977;48.782;9.190;2023-08-07T08:42:29;16.40;99.90
24632;DHT22;59977;48.782;9.190;2023-08-07T08:44:56;16.30;99.90
24632;DHT22;59977;48.782;9.190;2023-08-07T08:47:22;16.40;99.90
24632;DHT22;59977;48.782;9.190;2023-08-07T08:49:51;16.50;99.90
24632;DHT22;59977;48.782;9.190;2023-08-07T08:52:21;16.60;99.90
24632;DHT22;59977;48.782;9.190;2023-08-07T08:54:47;16.80;99.90
24632;DHT22;59977;48.782;9.190;2023-08-07T08:57:13;17.00;99.90
24632;DHT22;59977;48.782;9.190;2023-08-07T08:59:42;17.10;99.90
24632;DHT22;59977;48.782;9.190;2023-08-07T09:02:08;17.10;99.90
24632;DHT22;59977;48.782;9.190;2023-08-07T09:04:34;17.10;99.90
24632;DHT22;59977;48.782;9.190;2023-08-07T09:07:01;17.00;99.90
24632;DHT22;59977;48.782;9.190;2023-08-07T09:09:27;17.00;99.90
24632;DHT22;59977;48.782;9.190;2023-08-07T09:11:55;17.20;99.90
24632;DHT22;59977;48.782;9.190;2023-08-07T09:14:26;17.40;99.90
24632;DHT22;59977;48.782;9.190;2023-08-07T09:16:53;17.50;99.90
24632;DHT22;59977;48.782;9.190;2023-08-07T09:19:19;17.60;99.90
24632;DHT22;59977;48.782;9.190;2023-08-07T09:21:45;17.60;99.90
24632;DHT22;59977;48.782;9.190;2023-08-07T09:24:10;17.70;99.90
24632;DHT22;59977;48.782;9.190;2023-08-07T09:26:37;17.70;99.90
24632;DHT22;59977;48.782;9.190;2023-08-07T09:29:04;17.80;99.90
24632;DHT22;59977;48.782;9.190;2023-08-07T09:31:30;17.80;99.90
24632;DHT22;59977;48.782;9.190;2023-08-07T09:34:03;17.70;99.90
24632;DHT22;59977;48.782;9.190;2023-08-07T09:36:32;17.60;99.90
24632;DHT22;59977;48.782;9.190;2023-08-07T09:39:01;17.70;99.90
24632;DHT22;59977;48.782;9.190;2023-08-07T09:41:29;17.90;99.90
24632;DHT22;59977;48.782;9.190;2023-08-07T09:43:55;17.80;99.70
24632;DHT22;59977;48.782;9.190;2023-08-07T09:46:21;17.80;99.90
24632;DHT22;59977;48.782;9.190;2023-08-07T09:48:47;18.00;99.90
24632;DHT22;59977;48.782;9.190;2023-08-07T09:51:13;18.10;99.50
24632;DHT22;59977;48.782;9.190;2023-08-07T09:53:38;18.10;99.50
24632;DHT22;59977;48.782;9.190;2023-08-07T09:56:04;18.30;99.20
24632;DHT22;59977;48.782;9.190;2023-08-07T09:58:31;18.20;99.30
24632;DHT22;59977;48.782;9.190;2023-08-07T10:01:07;18.10;99.20
24632;DHT22;59977;48.782;9.190;2023-08-07T10:03:35;18.00;99.10
24632;DHT22;59977;48.782;9.190;2023-08-07T10:06:01;18.10;99.20
24632;DHT22;59977;48.782;9.190;2023-08-07T10:08:28;18.20;99.10
24632;DHT22;59977;48.782;9.190;2023-08-07T10:10:54;18.20;98.70
24632;DHT22;59977;48.782;9.190;2023-08-07T10:13:21;18.30;98.70
24632;DHT22;59977;48.782;9.190;2023-08-07T10:15:48;18.40;98.40
24632;DHT22;59977;48.782;9.190;2023-08-07T10:18:14;18.50;97.90
24632;DHT22;59977;48.782;9.190;2023-08-07T10:20:40;18.50;97.50
24632;DHT22;59977;48.782;9.190;2023-08-07T10:23:11;18.40;97.50
24632;DHT22;59977;48.782;9.190;2023-08-07T10:25:41;18.50;97.20
24632;DHT22;59977;48.782;9.190;2023-08-07T10:28:09;18.50;97.30
24632;DHT22;59977;48.782;9.190;2023-08-07T10:30:37;18.60;96.60
24632;DHT22;59977;48.782;9.190;2023-08-07T10:33:05;18.50;95.80
24632;DHT22;59977;48.782;9.190;2023-08-07T10:35:32;18.20;95.60
24632;DHT22;59977;48.782;9.190;2023-08-07T10:38:08;18.10;95.80
24632;DHT22;59977;48.782;9.190;2023-08-07T10:40:58;18.00;96.10
24632;DHT22;59977;48.782;9.190;2023-08-07T10:43:24;18.10;95.90
24632;DHT22;59977;48.782;9.190;2023-08-07T10:45:50;18.10;95.80
24632;DHT22;59977;48.782;9.190;2023-08-07T10:48:19;18.00;95.70
24632;DHT22;59977;48.782;9.190;2023-08-07T10:50:55;17.90;96.10
24632;DHT22;59977;48.782;9.190;2023-08-07T10:56:11;17.90;96.30
24632;DHT22;59977;48.782;9.190;2023-08-07T10:58:40;18.00;96.50
24632;DHT22;59977;48.782;9.190;2023-08-07T11:01:39;18.20;96.10
24632;DHT22;59977;48.782;9.190;2023-08-07T11:04:09;18.30;96.00
24632;DHT22;59977;48.782;9.190;2023-08-07T11:06:36;18.50;95.80
24632;DHT22;59977;48.782;9.190;2023-08-07T11:09:04;18.60;95.00
24632;DHT22;59977;48.782;9.190;2023-08-07T11:14:11;18.40;94.70
24632;DHT22;59977;48.782;9.190;2023-08-07T11:16:38;18.40;95.10
24632;DHT22;59977;48.782;9.190;2023-08-07T11:19:04;18.50;95.00
24632;DHT22;59977;48.782;9.190;2023-08-07T11:21:31;18.40;95.30
24632;DHT22;59977;48.782;9.190;2023-08-07T11:23:57;18.30;95.50
24632;DHT22;59977;48.782;9.190;2023-08-07T11:26:23;18.20;95.80
24632;DHT22;59977;48.782;9.190;2023-08-07T11:28:51;18.00;96.50
24632;DHT22;59977;48.782;9.190;2023-08-07T11:31:21;18.00;96.80
24632;DHT22;59977;48.782;9.190;2023-08-07T11:33:50;17.90;97.00
24632;DHT22;59977;48.782;9.190;2023-08-07T11:36:16;17.90;97.60
24632;DHT22;59977;48.782;9.190;2023-08-07T11:38:43;17.90;97.70
24632;DHT22;59977;48.782;9.190;2023-08-07T11:41:10;17.90;97.50
24632;DHT22;59977;48.782;9.190;2023-08-07T11:43:37;17.70;98.00
24632;DHT22;59977;48.782;9.190;2023-08-07T11:46:08;17.50;98.20
24632;DHT22;59977;48.782;9.190;2023-08-07T11:48:35;17.30;98.80
24632;DHT22;59977;48.782;9.190;2023-08-07T11:51:02;17.30;99.10
24632;DHT22;59977;48.782;9.190;2023-08-07T11:53:34;17.30;99.40
24632;DHT22;59977;48.782;9.190;2023-08-07T11:56:09;17.30;99.60
24632;DHT22;59977;48.782;9.190;2023-08-07T11:58:40;17.40;99.70
24632;DHT22;59977;48.782;9.190;2023-08-07T12:01:09;17.40;99.90
24632;DHT22;59977;48.782;9.190;2023-08-07T12:03:37;17.40;99.60
24632;DHT22;59977;48.782;9.190;2023-08-07T12:06:07;17.40;99.80
24632;DHT22;59977;48.782;9.190;2023-08-07T12:08:35;17.50;99.90
24632;DHT22;59977;48.782;9.190;2023-08-07T12:11:06;17.50;99.90
24632;DHT22;59977;48.782;9.190;2023-08-07T12:13:33;17.50;99.90
24632;DHT22;59977;48.782;9.190;2023-08-07T12:16:02;17.70;99.90
24632;DHT22;59977;48.782;9.190;2023-08-07T12:18:30;17.90;99.80
24632;DHT22;59977;48.782;9.190;2023-08-07T12:21:04;18.10;99.30
24632;DHT22;59977;48.782;9.190;2023-08-07T12:23:33;18.30;99.80
24632;DHT22;59977;48.782;9.190;2023-08-07T12:26:00;18.30;99.90
24632;DHT22;59977;48.782;9.190;2023-08-07T12:28:25;18.40;99.90
24632;DHT22;59977;48.782;9.190;2023-08-07T12:30:52;18.20;99.90
24632;DHT22;59977;48.782;9.190;2023-08-07T12:33:18;18.30;99.90
24632;DHT22;59977;48.782;9.190;2023-08-07T12:35:44;18.30;99.90
24632;DHT22;59977;48.782;9.190;2023-08-07T12:38:10;18.40;99.90
24632;DHT22;59977;48.782;9.190;2023-08-07T12:40:36;18.40;99.90
24632;DHT22;59977;48.782;9.190;2023-08-07T12:43:03;18.60;99.90
24632;DHT22;59977;48.782;9.190;2023-08-07T12:45:29;18.60;99.90
24632;DHT22;59977;48.782;9.190;2023-08-07T12:47:55;18.80;99.90
24632;DHT22;59977;48.782;9.190;2023-08-07T12:50:20;18.90;99.80
24632;DHT22;59977;48.782;9.190;2023-08-07T12:52:46;19.00;99.80
24632;DHT22;59977;48.782;9.190;2023-08-07T12:55:12;19.00;99.00
24632;DHT22;59977;48.782;9.190;2023-08-07T12:57:41;19.00;98.90
24632;DHT22;59977;48.782;9.190;2023-08-07T13:00:12;19.10;98.20
24632;DHT22;59977;48.782;9.190;2023-08-07T13:02:46;19.10;98.20
24632;DHT22;59977;48.782;9.190;2023-08-07T13:05:13;18.90;98.60
24632;DHT22;59977;48.782;9.190;2023-08-07T13:07:40;19.10;98.70
24632;DHT22;59977;48.782;9.190;2023-08-07T13:10:07;19.20;98.60
24632;DHT22;59977;48.782;9.190;2023-08-07T13:12:35;19.20;97.70
24632;DHT22;59977;48.782;9.190;2023-08-07T13:15:02;19.10;98.10
24632;DHT22;59977;48.782;9.190;2023-08-07T13:17:28;18.80;98.30
24632;DHT22;59977;48.782;9.190;2023-08-07T13:19:53;18.60;98.50
24632;DHT22;59977;48.782;9.190;2023-08-07T13:22:19;18.50;98.70
24632;DHT22;59977;48.782;9.190;2023-08-07T13:24:45;18.40;98.80
24632;DHT22;59977;48.782;9.190;2023-08-07T13:27:10;18.30;99.10
24632;DHT22;59977;48.782;9.190;2023-08-07T13:29:36;18.30;99.90
24632;DHT22;59977;48.782;9.190;2023-08-07T13:32:02;18.40;99.90
24632;DHT22;59977;48.782;9.190;2023-08-07T13:34:37;18.50;99.90
24632;DHT22;59977;48.782;9.190;2023-08-07T13:37:06;18.70;99.90
24632;DHT22;59977;48.782;9.190;2023-08-07T13:39:34;18.90;99.90
24632;DHT22;59977;48.782;9.190;2023-08-07T13:42:00;19.10;99.90
24632;DHT22;59977;48.782;9.190;2023-08-07T13:44:26;19.40;99.90
24632;DHT22;59977;48.782;9.190;2023-08-07T13:46:51;19.60;99.10
24632;DHT22;59977;48.782;9.190;2023-08-07T13:49:17;20.30;98.60
24632;DHT22;59977;48.782;9.190;2023-08-07T13:51:43;20.90;96.60
24632;DHT22;59977;48.782;9.190;2023-08-07T13:54:08;20.70;95.70
24632;DHT22;59977;48.782;9.190;2023-08-07T13:56:34;20.30;95.80
24632;DHT22;59977;48.782;9.190;2023-08-07T13:59:00;20.00;96.40
24632;DHT22;59977;48.782;9.190;2023-08-07T14:01:26;19.90;96.10
24632;DHT22;59977;48.782;9.190;2023-08-07T14:03:53;19.60;96.30
24632;DHT22;59977;48.782;9.190;2023-08-07T14:06:19;19.40;96.90
24632;DHT22;59977;48.782;9.190;2023-08-07T14:08:44;19.20;97.20
24632;DHT22;59977;48.782;9.190;2023-08-07T14:11:10;19.10;97.70
24632;DHT22;59977;48.782;9.190;2023-08-07T14:13:38;19.10;97.90
24632;DHT22;59977;48.782;9.190;2023-08-07T14:16:04;19.30;97.60
24632;DHT22;59977;48.782;9.190;2023-08-07T14:18:29;19.70;96.50
24632;DHT22;59977;48.782;9.190;2023-08-07T14:20:55;21.00;94.60
24632;DHT22;59977;48.782;9.190;2023-08-07T14:23:20;22.30;93.40
24632;DHT22;59977;48.782;9.190;2023-08-07T14:25:46;22.00;91.20
24632;DHT22;59977;48.782;9.190;2023-08-07T14:28:14;21.10;91.60
24632;DHT22;59977;48.782;9.190;2023-08-07T14:30:39;20.40;92.20
24632;DHT22;59977;48.782;9.190;2023-08-07T14:33:05;20.00;93.50
24632;DHT22;59977;48.782;9.190;2023-08-07T14:35:30;19.60;94.40
24632;DHT22;59977;48.782;9.190;2023-08-07T14:37:56;19.50;94.70
24632;DHT22;59977;48.782;9.190;2023-08-07T14:40:22;19.50;95.00
24632;DHT22;59977;48.782;9.190;2023-08-07T14:42:47;19.70;95.30
24632;DHT22;59977;48.782;9.190;2023-08-07T14:45:13;20.10;94.90
24632;DHT22;59977;48.782;9.190;2023-08-07T14:47:38;21.30;93.50
24632;DHT22;59977;48.782;9.190;2023-08-07T14:50:04;21.50;92.10
24632;DHT22;59977;48.782;9.190;2023-08-07T14:52:30;21.30;92.40
24632;DHT22;59977;48.782;9.190;2023-08-07T14:54:55;22.00;92.20
24632;DHT22;59977;48.782;9.190;2023-08-07T14:57:23;23.10;90.40
24632;DHT22;59977;48.782;9.190;2023-08-07T14:59:48;24.20;86.60
24632;DHT22;59977;48.782;9.190;2023-08-07T15:02:14;24.70;83.00
24632;DHT22;59977;48.782;9.190;2023-08-07T15:04:39;25.50;81.60
24632;DHT22;59977;48.782;9.190;2023-08-07T15:07:05;26.00;79.90
24632;DHT22;59977;48.782;9.190;2023-08-07T15:09:31;25.40;74.00
24632;DHT22;59977;48.782;9.190;2023-08-07T15:11:57;24.10;76.00
24632;DHT22;59977;48.782;9.190;2023-08-07T15:14:22;23.00;78.70
24632;DHT22;59977;48.782;9.190;2023-08-07T15:16:48;22.10;81.30
24632;DHT22;59977;48.782;9.190;2023-08-07T15:19:13;21.30;84.80
24632;DHT22;59977;48.782;9.190;2023-08-07T15:21:39;20.50;88.90
24632;DHT22;59977;48.782;9.190;2023-08-07T15:24:05;20.30;91.30
24632;DHT22;59977;48.782;9.190;2023-08-07T15:26:31;20.30;90.80
24632;DHT22;59977;48.782;9.190;2023-08-07T15:28:56;20.20;91.70
24632;DHT22;59977;48.782;9.190;2023-08-07T15:31:22;19.00;90.80
24632;DHT22;59977;48.782;9.190;2023-08-07T15:33:48;19.80;91.70
24632;DHT22;59977;48.782;9.190;2023-08-07T15:36:16;19.80;92.00